sensor_id;sensor_type;location;lat;lon;timestamp;pressure;altitude;pressure_sealevel;temperature;humidity
7376;BME280;3728;42.266;24.944;2023-03-26T00:01:38;98766.88;;;13.48;100.00
7376;BME280;3728;42.266;24.944;2023-03-26T00:04:07;98766.44;;;13.61;100.00
7376;BME280;3728;42.266;24.944;2023-03-26T00:06:36;98770.13;;;13.73;100.00
7376;BME280;3728;42.266;24.944;2023-03-26T00:09:08;98778.78;;;13.73;100.00
7376;BME280;3728;42.266;24.944;2023-03-26T00:11:39;98787.59;;;13.65;100.00
7376;BME280;3728;42.266;24.944;2023-03-26T00:14:08;98770.19;;;13.60;100.00
7376;BME280;3728;42.266;24.944;2023-03-26T00:16:43;98767.41;;;13.69;100.00
7376;BME280;3728;42.266;24.944;2023-03-26T00:19:13;98773.72;;;13.80;98.97
7376;BME280;3728;42.266;24.944;2023-03-26T00:21:42;98786.88;;;13.80;99.07
7376;BME280;3728;42.266;24.944;2023-03-26T00:24:12;98787.97;;;13.79;98.34
7376;BME280;3728;42.266;24.944;2023-03-26T00:26:42;98784.56;;;13.63;100.00
7376;BME280;3728;42.266;24.944;2023-03-26T00:29:11;98770.06;;;13.41;100.00
7376;BME280;3728;42.266;24.944;2023-03-26T00:31:39;98778.22;;;13.36;100.00
7376;BME280;3728;42.266;24.944;2023-03-26T00:34:12;98767.88;;;13.16;100.00
7376;BME280;3728;42.266;24.944;2023-03-26T00:36:41;98768.22;;;13.14;100.00
7376;BME280;3728;42.266;24.944;2023-03-26T00:39:09;98786.06;;;13.64;98.84
7376;BME280;3728;42.266;24.944;2023-03-26T00:41:37;98802.56;;;13.92;89.88
7376;BME280;3728;42.266;24.944;2023-03-26T00:44:09;98801.69;;;13.29;91.43
7376;BME280;3728;42.266;24.944;2023-03-26T00:46:37;98804.78;;;13.19;97.42
7376;BME280;3728;42.266;24.944;2023-03-26T00:49:04;98806.72;;;12.82;100.00
7376;BME280;3728;42.266;24.944;2023-03-26T00:51:36;98814.91;;;12.93;100.00
7376;BME280;3728;42.266;24.944;2023-03-26T00:54:06;98820.72;;;12.74;100.00
7376;BME280;3728;42.266;24.944;2023-03-26T00:56:34;98825.13;;;12.58;100.00
7376;BME280;3728;42.266;24.944;2023-03-26T00:59:03;98822.50;;;12.46;100.00
7376;BME280;3728;42.266;24.944;2023-03-26T01:01:30;98830.91;;;12.40;100.00
7376;BME280;3728;42.266;24.944;2023-03-26T01:04:19;98843.94;;;12.36;100.00
7376;BME280;3728;42.266;24.944;2023-03-26T01:06:59;98836.69;;;12.21;100.00
7376;BME280;3728;42.266;24.944;2023-03-26T01:09:34;98813.84;;;12.21;100.00
7376;BME280;3728;42.266;24.944;2023-03-26T01:12:05;98792.28;;;12.04;100.00
7376;BME280;3728;42.266;24.944;2023-03-26T01:14:35;98777.22;;;12.13;100.00
7376;BME280;3728;42.266;24.944;2023-03-26T01:17:06;98785.97;;;12.29;100.00
7376;BME280;3728;42.266;24.944;2023-03-26T01:19:56;98847.41;;;12.88;100.00
7376;BME280;3728;42.266;24.944;2023-03-26T01:22:41;98851.38;;;12.58;100.00
7376;BME280;3728;42.266;24.944;2023-03-26T01:25:15;98851.91;;;12.40;100.00
7376;BME280;3728;42.266;24.944;2023-03-26T01:30:39;98857.38;;;12.10;100.00
7376;BME280;3728;42.266;24.944;2023-03-26T01:33:27;98849.88;;;12.69;100.00
7376;BME280;3728;42.266;24.944;2023-03-26T01:36:20;98848.75;;;12.58;100.00
7376;BME280;3728;42.266;24.944;2023-03-26T01:38:58;98857.84;;;12.85;100.00
7376;BME280;3728;42.266;24.944;2023-03-26T01:41:54;98856.84;;;12.65;100.00
7376;BME280;3728;42.266;24.944;2023-03-26T01:44:32;98848.97;;;12.77;100.00
7376;BME280;3728;42.266;24.944;2023-03-26T01:47:08;98842.19;;;12.76;100.00
7376;BME280;3728;42.266;24.944;2023-03-26T01:49:36;98841.50;;;12.91;100.00
7376;BME280;3728;42.266;24.944;2023-03-26T01:52:10;98844.91;;;12.92;100.00
7376;BME280;3728;42.266;24.944;2023-03-26T01:54:40;98832.22;;;13.34;100.00
7376;BME280;3728;42.266;24.944;2023-03-26T02:03:26;98838.94;;;13.19;100.00
7376;BME280;3728;42.266;24.944;2023-03-26T02:06:15;98841.66;;;13.35;99.99
7376;BME280;3728;42.266;24.944;2023-03-26T02:08:58;98850.66;;;13.22;100.00
7376;BME280;3728;42.266;24.944;2023-03-26T02:11:29;98857.91;;;13.00;100.00
7376;BME280;3728;42.266;24.944;2023-03-26T02:14:03;98861.91;;;13.07;100.00
7376;BME280;3728;42.266;24.944;2023-03-26T02:16:32;98852.66;;;12.88;100.00
7376;BME280;3728;42.266;24.944;2023-03-26T02:19:00;98867.69;;;12.76;100.00
7376;BME280;3728;42.266;24.944;2023-03-26T02:21:27;98869.75;;;12.58;100.00
7376;BME280;3728;42.266;24.944;2023-03-26T02:23:59;98871.97;;;12.80;100.00
7376;BME280;3728;42.266;24.944;2023-03-26T02:26:34;98871.97;;;12.92;100.00
7376;BME280;3728;42.266;24.944;2023-03-26T02:29:09;98874.34;;;13.10;100.00
7376;BME280;3728;42.266;24.944;2023-03-26T02:31:42;98871.19;;;12.80;100.00
7376;BME280;3728;42.266;24.944;2023-03-26T02:34:10;98864.44;;;12.67;100.00
7376;BME280;3728;42.266;24.944;2023-03-26T02:36:45;98861.03;;;12.90;100.00
7376;BME280;3728;42.266;24.944;2023-03-26T02:39:12;98869.97;;;13.01;99.54
7376;BME280;3728;42.266;24.944;2023-03-26T02:41:46;98879.63;;;12.97;99.27
7376;BME280;3728;42.266;24.944;2023-03-26T02:44:14;98896.59;;;12.88;100.00
7376;BME280;3728;42.266;24.944;2023-03-26T02:46:56;98888.16;;;12.70;100.00
7376;BME280;3728;42.266;24.944;2023-03-26T02:49:43;98884.25;;;12.76;100.00
7376;BME280;3728;42.266;24.944;2023-03-26T02:52:17;98874.47;;;13.01;99.60
7376;BME280;3728;42.266;24.944;2023-03-26T02:54:48;98872.94;;;12.88;98.76
7376;BME280;3728;42.266;24.944;2023-03-26T02:57:18;98874.69;;;13.08;97.63
7376;BME280;3728;42.266;24.944;2023-03-26T03:00:03;98878.38;;;13.31;94.16
7376;BME280;3728;42.266;24.944;2023-03-26T03:02:46;98881.72;;;13.16;95.33
7376;BME280;3728;42.266;24.944;2023-03-26T03:05:37;98884.00;;;12.93;96.77
7376;BME280;3728;42.266;24.944;2023-03-26T03:08:35;98884.97;;;12.65;98.72
7376;BME280;3728;42.266;24.944;2023-03-26T03:11:18;98893.97;;;13.00;96.63
7376;BME280;3728;42.266;24.944;2023-03-26T03:13:49;98892.00;;;13.09;95.68
7376;BME280;3728;42.266;24.944;2023-03-26T03:16:21;98889.38;;;12.97;95.67
7376;BME280;3728;42.266;24.944;2023-03-26T03:18:49;98889.03;;;12.98;95.53
7376;BME280;3728;42.266;24.944;2023-03-26T03:21:29;98882.69;;;13.12;94.77
7376;BME280;3728;42.266;24.944;2023-03-26T03:23:57;98889.47;;;13.00;94.60
7376;BME280;3728;42.266;24.944;2023-03-26T03:26:28;98893.53;;;13.50;90.85
7376;BME280;3728;42.266;24.944;2023-03-26T03:29:01;98894.91;;;13.32;91.09
7376;BME280;3728;42.266;24.944;2023-03-26T03:31:29;98893.16;;;13.24;90.88
7376;BME280;3728;42.266;24.944;2023-03-26T03:34:01;98894.31;;;13.11;91.11
7376;BME280;3728;42.266;24.944;2023-03-26T03:36:32;98895.81;;;12.99;92.67
7376;BME280;3728;42.266;24.944;2023-03-26T03:39:12;98897.78;;;13.15;91.48
7376;BME280;3728;42.266;24.944;2023-03-26T03:41:40;98905.78;;;12.82;93.15
7376;BME280;3728;42.266;24.944;2023-03-26T03:44:12;98910.81;;;12.75;92.98
7376;BME280;3728;42.266;24.944;2023-03-26T03:46:39;98921.44;;;12.78;92.33
7376;BME280;3728;42.266;24.944;2023-03-26T03:49:07;98923.97;;;12.75;93.09
7376;BME280;3728;42.266;24.944;2023-03-26T03:51:36;98931.97;;;12.78;93.00
7376;BME280;3728;42.266;24.944;2023-03-26T03:54:13;98930.31;;;12.74;92.32
7376;BME280;3728;42.266;24.944;2023-03-26T03:56:43;98936.38;;;12.42;94.30
7376;BME280;3728;42.266;24.944;2023-03-26T03:59:12;98939.78;;;12.42;93.42
7376;BME280;3728;42.266;24.944;2023-03-26T04:01:41;98942.78;;;12.53;92.13
7376;BME280;3728;42.266;24.944;2023-03-26T04:04:21;98947.69;;;12.54;91.78
7376;BME280;3728;42.266;24.944;2023-03-26T04:06:56;98968.09;;;12.69;90.10
7376;BME280;3728;42.266;24.944;2023-03-26T04:09:28;98957.22;;;12.59;90.40
7376;BME280;3728;42.266;24.944;2023-03-26T04:12:00;98965.56;;;12.73;89.10
7376;BME280;3728;42.266;24.944;2023-03-26T04:14:37;98959.19;;;12.50;90.16
7376;BME280;3728;42.266;24.944;2023-03-26T04:17:11;98967.63;;;12.55;89.85
7376;BME280;3728;42.266;24.944;2023-03-26T04:19:43;98970.09;;;12.40;89.92
7376;BME280;3728;42.266;24.944;2023-03-26T04:22:12;98960.59;;;12.47;91.10
7376;BME280;3728;42.266;24.944;2023-03-26T04:24:52;98949.94;;;11.99;93.04
7376;BME280;3728;42.266;24.944;2023-03-26T04:27:26;98957.06;;;12.31;91.02
7376;BME280;3728;42.266;24.944;2023-03-26T04:30:20;98958.47;;;12.28;91.44
7376;BME280;3728;42.266;24.944;2023-03-26T04:33:02;98957.06;;;12.31;91.70
7376;BME280;3728;42.266;24.944;2023-03-26T04:35:36;98957.34;;;12.29;91.63
7376;BME280;3728;42.266;24.944;2023-03-26T04:38:09;98956.63;;;12.29;90.43
7376;BME280;3728;42.266;24.944;2023-03-26T04:40:42;98963.81;;;12.32;91.03
7376;BME280;3728;42.266;24.944;2023-03-26T04:43:36;98965.28;;;12.09;92.04
7376;BME280;3728;42.266;24.944;2023-03-26T04:46:17;98973.06;;;12.38;89.82
7376;BME280;3728;42.266;24.944;2023-03-26T04:48:53;98976.88;;;12.41;88.80
7376;BME280;3728;42.266;24.944;2023-03-26T04:51:25;98978.09;;;12.43;87.53
7376;BME280;3728;42.266;24.944;2023-03-26T04:53:58;98986.56;;;12.73;86.74
7376;BME280;3728;42.266;24.944;2023-03-26T04:57:03;98986.03;;;12.79;84.58
7376;BME280;3728;42.266;24.944;2023-03-26T04:59:56;98987.97;;;12.58;84.87
7376;BME280;3728;42.266;24.944;2023-03-26T05:02:24;98977.47;;;12.58;84.56
7376;BME280;3728;42.266;24.944;2023-03-26T05:04:53;98983.38;;;12.67;83.75
7376;BME280;3728;42.266;24.944;2023-03-26T05:07:26;98991.06;;;12.72;83.74
7376;BME280;3728;42.266;24.944;2023-03-26T05:09:59;98999.50;;;12.78;83.40
7376;BME280;3728;42.266;24.944;2023-03-26T05:12:50;99010.66;;;12.75;83.21
7376;BME280;3728;42.266;24.944;2023-03-26T05:15:28;99008.56;;;12.68;83.51
7376;BME280;3728;42.266;24.944;2023-03-26T05:17:55;99021.16;;;12.75;83.63
7376;BME280;3728;42.266;24.944;2023-03-26T05:20:37;99026.69;;;12.94;82.55
7376;BME280;3728;42.266;24.944;2023-03-26T05:23:06;99032.25;;;12.80;83.14
7376;BME280;3728;42.266;24.944;2023-03-26T05:25:36;99042.13;;;12.95;83.08
7376;BME280;3728;42.266;24.944;2023-03-26T05:28:12;99023.63;;;12.92;82.34
7376;BME280;3728;42.266;24.944;2023-03-26T05:30:51;99040.31;;;13.08;81.65
7376;BME280;3728;42.266;24.944;2023-03-26T05:33:21;99042.81;;;13.04;82.12
7376;BME280;3728;42.266;24.944;2023-03-26T05:36:06;99039.53;;;13.20;81.48
7376;BME280;3728;42.266;24.944;2023-03-26T05:38:42;99043.81;;;13.12;83.09
7376;BME280;3728;42.266;24.944;2023-03-26T05:41:17;99050.06;;;13.08;83.10
7376;BME280;3728;42.266;24.944;2023-03-26T05:43:46;99046.78;;;13.11;83.03
7376;BME280;3728;42.266;24.944;2023-03-26T05:46:18;99058.88;;;13.03;83.62
7376;BME280;3728;42.266;24.944;2023-03-26T05:48:48;99058.06;;;13.11;84.17
7376;BME280;3728;42.266;24.944;2023-03-26T05:51:17;99045.47;;;13.41;84.23
7376;BME280;3728;42.266;24.944;2023-03-26T05:53:54;99051.34;;;13.86;81.53
7376;BME280;3728;42.266;24.944;2023-03-26T05:56:31;99064.22;;;13.63;82.93
7376;BME280;3728;42.266;24.944;2023-03-26T05:59:17;99066.94;;;13.55;83.85
7376;BME280;3728;42.266;24.944;2023-03-26T06:02:03;99056.34;;;13.51;84.63
7376;BME280;3728;42.266;24.944;2023-03-26T06:04:51;99068.59;;;13.71;82.33
7376;BME280;3728;42.266;24.944;2023-03-26T06:07:47;99075.63;;;13.67;82.92
7376;BME280;3728;42.266;24.944;2023-03-26T06:10:17;99073.69;;;13.92;81.78
7376;BME280;3728;42.266;24.944;2023-03-26T06:12:45;99081.59;;;14.44;79.04
7376;BME280;3728;42.266;24.944;2023-03-26T06:15:13;99084.63;;;14.30;78.71
7376;BME280;3728;42.266;24.944;2023-03-26T06:17:56;99091.03;;;14.45;78.75
7376;BME280;3728;42.266;24.944;2023-03-26T06:20:48;99088.88;;;14.63;77.55
7376;BME280;3728;42.266;24.944;2023-03-26T06:23:27;99086.72;;;14.96;76.81
7376;BME280;3728;42.266;24.944;2023-03-26T06:26:05;99088.03;;;15.02;74.91
7376;BME280;3728;42.266;24.944;2023-03-26T06:29:02;99089.09;;;15.44;71.20
7376;BME280;3728;42.266;24.944;2023-03-26T06:31:55;99087.66;;;15.47;70.20
7376;BME280;3728;42.266;24.944;2023-03-26T06:34:43;99097.91;;;15.36;70.14
7376;BME280;3728;42.266;24.944;2023-03-26T06:37:11;99096.88;;;15.41;68.30
7376;BME280;3728;42.266;24.944;2023-03-26T06:39:39;99102.00;;;15.65;66.22
7376;BME280;3728;42.266;24.944;2023-03-26T06:42:20;99092.38;;;15.57;64.93
7376;BME280;3728;42.266;24.944;2023-03-26T06:45:40;99097.00;;;15.44;65.87
7376;BME280;3728;42.266;24.944;2023-03-26T06:48:39;99095.13;;;15.60;64.43
7376;BME280;3728;42.266;24.944;2023-03-26T06:51:11;99096.22;;;15.59;63.70
7376;BME280;3728;42.266;24.944;2023-03-26T06:54:12;99100.19;;;15.85;63.86
7376;BME280;3728;42.266;24.944;2023-03-26T06:57:02;99091.03;;;15.98;61.93
7376;BME280;3728;42.266;24.944;2023-03-26T07:00:05;99099.50;;;16.22;59.96
7376;BME280;3728;42.266;24.944;2023-03-26T07:03:06;99093.56;;;16.10;61.32
7376;BME280;3728;42.266;24.944;2023-03-26T07:05:46;99095.88;;;16.50;57.15
7376;BME280;3728;42.266;24.944;2023-03-26T07:08:32;99098.94;;;16.52;57.58
7376;BME280;3728;42.266;24.944;2023-03-26T07:11:18;99114.91;;;16.39;56.27
7376;BME280;3728;42.266;24.944;2023-03-26T07:14:08;99114.16;;;16.39;56.65
7376;BME280;3728;42.266;24.944;2023-03-26T07:16:47;99104.84;;;16.26;54.96
7376;BME280;3728;42.266;24.944;2023-03-26T07:19:43;99127.81;;;16.41;53.91
7376;BME280;3728;42.266;24.944;2023-03-26T07:22:19;99110.47;;;16.43;55.25
7376;BME280;3728;42.266;24.944;2023-03-26T07:25:04;99121.59;;;16.33;54.36
7376;BME280;3728;42.266;24.944;2023-03-26T07:38:11;99103.31;;;16.82;50.59
7376;BME280;3728;42.266;24.944;2023-03-26T07:41:24;99117.47;;;16.93;49.22
7376;BME280;3728;42.266;24.944;2023-03-26T07:48:00;99117.09;;;17.14;48.87
7376;BME280;3728;42.266;24.944;2023-03-26T07:51:04;99108.44;;;17.40;47.50
7376;BME280;3728;42.266;24.944;2023-03-26T07:54:09;99104.66;;;17.41;46.36
7376;BME280;3728;42.266;24.944;2023-03-26T07:58:22;99118.47;;;17.76;47.47
7376;BME280;3728;42.266;24.944;2023-03-26T08:01:47;99107.94;;;17.80;46.70
7376;BME280;3728;42.266;24.944;2023-03-26T08:05:11;99114.34;;;17.52;47.60
7376;BME280;3728;42.266;24.944;2023-03-26T08:08:49;99107.34;;;17.63;45.58
7376;BME280;3728;42.266;24.944;2023-03-26T08:11:51;99105.00;;;17.58;46.12
7376;BME280;3728;42.266;24.944;2023-03-26T08:14:43;99104.53;;;17.79;45.84
7376;BME280;3728;42.266;24.944;2023-03-26T08:20:50;99099.53;;;18.00;44.05
7376;BME280;3728;42.266;24.944;2023-03-26T08:23:33;99111.09;;;18.18;43.09
7376;BME280;3728;42.266;24.944;2023-03-26T08:26:53;99097.19;;;18.25;43.36
7376;BME280;3728;42.266;24.944;2023-03-26T08:32:30;99101.34;;;18.22;42.40
7376;BME280;3728;42.266;24.944;2023-03-26T08:34:58;99098.13;;;18.39;42.62
7376;BME280;3728;42.266;24.944;2023-03-26T08:37:26;99102.34;;;18.44;43.46
7376;BME280;3728;42.266;24.944;2023-03-26T08:39:54;99093.94;;;18.38;42.50
7376;BME280;3728;42.266;24.944;2023-03-26T09:12:30;99071.50;;;19.46;37.08
7376;BME280;3728;42.266;24.944;2023-03-26T09:22:16;99069.72;;;19.64;35.75
7376;BME280;3728;42.266;24.944;2023-03-26T09:37:24;99062.41;;;20.16;36.84
7376;BME280;3728;42.266;24.944;2023-03-26T09:40:27;99052.94;;;20.18;35.54
7376;BME280;3728;42.266;24.944;2023-03-26T09:48:53;99039.66;;;20.22;35.53
7376;BME280;3728;42.266;24.944;2023-03-26T09:57:55;99043.19;;;20.61;29.46
7376;BME280;3728;42.266;24.944;2023-03-26T10:00:35;99035.97;;;20.65;29.47
7376;BME280;3728;42.266;24.944;2023-03-26T10:15:33;99021.13;;;21.56;28.57
7376;BME280;3728;42.266;24.944;2023-03-26T10:32:52;99004.25;;;22.01;29.20
7376;BME280;3728;42.266;24.944;2023-03-26T10:56:40;98966.81;;;23.93;27.66
7376;BME280;3728;42.266;24.944;2023-03-26T10:59:12;98966.91;;;23.52;26.15
7376;BME280;3728;42.266;24.944;2023-03-26T11:02:17;98965.03;;;23.79;26.52
7376;BME280;3728;42.266;24.944;2023-03-26T11:08:04;98955.53;;;23.78;24.84
7376;BME280;3728;42.266;24.944;2023-03-26T11:20:16;98930.34;;;23.75;24.49
7376;BME280;3728;42.266;24.944;2023-03-26T11:32:22;98913.75;;;24.41;24.82
7376;BME280;3728;42.266;24.944;2023-03-26T11:35:31;98917.28;;;24.84;24.78
7376;BME280;3728;42.266;24.944;2023-03-26T11:38:46;98906.06;;;24.66;24.37
7376;BME280;3728;42.266;24.944;2023-03-26T11:41:31;98909.47;;;24.47;23.48
7376;BME280;3728;42.266;24.944;2023-03-26T11:44:35;98904.03;;;24.27;24.83
7376;BME280;3728;42.266;24.944;2023-03-26T11:47:23;98897.41;;;24.59;23.15
7376;BME280;3728;42.266;24.944;2023-03-26T11:49:58;98902.00;;;24.58;24.00
7376;BME280;3728;42.266;24.944;2023-03-26T11:52:27;98895.00;;;24.64;23.88
7376;BME280;3728;42.266;24.944;2023-03-26T11:54:55;98892.75;;;24.63;23.09
7376;BME280;3728;42.266;24.944;2023-03-26T11:57:30;98892.88;;;24.32;24.25
7376;BME280;3728;42.266;24.944;2023-03-26T12:00:09;98888.38;;;24.26;23.62
7376;BME280;3728;42.266;24.944;2023-03-26T12:02:45;98891.94;;;24.89;23.90
7376;BME280;3728;42.266;24.944;2023-03-26T12:05:22;98881.28;;;24.85;22.06
7376;BME280;3728;42.266;24.944;2023-03-26T12:08:01;98882.81;;;24.86;22.57
7376;BME280;3728;42.266;24.944;2023-03-26T12:10:38;98883.28;;;24.81;21.26
7376;BME280;3728;42.266;24.944;2023-03-26T12:13:43;98894.91;;;24.71;21.82
7376;BME280;3728;42.266;24.944;2023-03-26T12:16:21;98887.28;;;24.46;22.20
7376;BME280;3728;42.266;24.944;2023-03-26T12:19:04;98887.34;;;24.43;21.98
7376;BME280;3728;42.266;24.944;2023-03-26T12:21:51;98878.34;;;24.80;21.54
7376;BME280;3728;42.266;24.944;2023-03-26T12:24:33;98866.56;;;24.51;21.19
7376;BME280;3728;42.266;24.944;2023-03-26T12:27:20;98876.31;;;24.14;22.48
7376;BME280;3728;42.266;24.944;2023-03-26T12:29:52;98879.41;;;24.13;22.74
7376;BME280;3728;42.266;24.944;2023-03-26T12:32:31;98878.59;;;24.62;23.01
7376;BME280;3728;42.266;24.944;2023-03-26T12:35:17;98882.00;;;24.89;21.20
7376;BME280;3728;42.266;24.944;2023-03-26T12:37:51;98878.94;;;24.87;20.92
7376;BME280;3728;42.266;24.944;2023-03-26T12:40:32;98864.53;;;24.81;21.94
7376;BME280;3728;42.266;24.944;2023-03-26T12:43:05;98876.75;;;25.61;21.43
7376;BME280;3728;42.266;24.944;2023-03-26T12:46:30;98872.78;;;25.69;20.78
7376;BME280;3728;42.266;24.944;2023-03-26T12:49:20;98855.41;;;25.57;20.07
7376;BME280;3728;42.266;24.944;2023-03-26T12:51:51;98860.44;;;25.55;20.74
7376;BME280;3728;42.266;24.944;2023-03-26T12:57:22;98857.06;;;25.32;21.03
7376;BME280;3728;42.266;24.944;2023-03-26T13:00:02;98844.75;;;25.14;20.42
7376;BME280;3728;42.266;24.944;2023-03-26T13:07:56;98834.75;;;24.76;20.80
7376;BME280;3728;42.266;24.944;2023-03-26T13:10:40;98829.41;;;24.33;20.91
7376;BME280;3728;42.266;24.944;2023-03-26T13:22:25;98822.13;;;24.76;22.16
7376;BME280;3728;42.266;24.944;2023-03-26T13:28:18;98821.50;;;25.28;21.91
7376;BME280;3728;42.266;24.944;2023-03-26T13:31:27;98812.44;;;25.41;20.04
7376;BME280;3728;42.266;24.944;2023-03-26T13:37:25;98821.91;;;26.46;19.57
7376;BME280;3728;42.266;24.944;2023-03-26T13:40:23;98818.03;;;26.47;18.64
7376;BME280;3728;42.266;24.944;2023-03-26T13:45:55;98813.31;;;26.51;18.69
7376;BME280;3728;42.266;24.944;2023-03-26T13:48:37;98820.75;;;26.15;19.50
7376;BME280;3728;42.266;24.944;2023-03-26T13:51:12;98817.69;;;25.64;19.57
7376;BME280;3728;42.266;24.944;2023-03-26T13:54:17;98814.63;;;26.30;21.14
7376;BME280;3728;42.266;24.944;2023-03-26T13:57:17;98808.97;;;28.15;20.22
7376;BME280;3728;42.266;24.944;2023-03-26T14:00:02;98821.78;;;29.54;19.12
7376;BME280;3728;42.266;24.944;2023-03-26T14:02:54;98822.50;;;30.34;17.17
7376;BME280;3728;42.266;24.944;2023-03-26T14:05:38;98828.06;;;30.85;17.87
7376;BME280;3728;42.266;24.944;2023-03-26T14:08:18;98816.09;;;31.37;17.99
7376;BME280;3728;42.266;24.944;2023-03-26T14:11:16;98817.78;;;32.00;16.78
7376;BME280;3728;42.266;24.944;2023-03-26T14:13:53;98817.19;;;32.43;16.00
7376;BME280;3728;42.266;24.944;2023-03-26T14:37:37;98802.38;;;31.82;17.77
7376;BME280;3728;42.266;24.944;2023-03-26T14:40:43;98810.50;;;32.06;17.22
7376;BME280;3728;42.266;24.944;2023-03-26T14:47:18;98799.56;;;31.26;17.92
7376;BME280;3728;42.266;24.944;2023-03-26T14:52:53;98791.25;;;32.27;17.81
7376;BME280;3728;42.266;24.944;2023-03-26T15:12:05;98786.13;;;32.44;16.41
7376;BME280;3728;42.266;24.944;2023-03-26T15:27:10;98789.28;;;33.39;16.93
7376;BME280;3728;42.266;24.944;2023-03-26T15:33:58;98789.66;;;33.47;16.40
7376;BME280;3728;42.266;24.944;2023-03-26T15:42:46;98788.16;;;32.73;16.50
7376;BME280;3728;42.266;24.944;2023-03-26T15:51:49;98782.50;;;32.09;17.70
7376;BME280;3728;42.266;24.944;2023-03-26T15:54:47;98784.69;;;31.21;17.50
7376;BME280;3728;42.266;24.944;2023-03-26T15:57:42;98789.59;;;30.99;17.97
7376;BME280;3728;42.266;24.944;2023-03-26T16:00:21;98788.69;;;30.93;18.43
7376;BME280;3728;42.266;24.944;2023-03-26T16:03:11;98780.75;;;30.53;18.36
7376;BME280;3728;42.266;24.944;2023-03-26T16:11:57;98790.88;;;29.86;19.71
7376;BME280;3728;42.266;24.944;2023-03-26T16:14:43;98784.56;;;29.40;20.46
7376;BME280;3728;42.266;24.944;2023-03-26T16:20:52;98789.63;;;28.29;21.30
7376;BME280;3728;42.266;24.944;2023-03-26T16:26:46;98804.31;;;26.58;22.02
7376;BME280;3728;42.266;24.944;2023-03-26T16:30:13;98795.47;;;25.64;23.43
7376;BME280;3728;42.266;24.944;2023-03-26T16:32:53;98795.16;;;25.06;25.14
7376;BME280;3728;42.266;24.944;2023-03-26T16:35:41;98786.56;;;24.33;25.22
7376;BME280;3728;42.266;24.944;2023-03-26T16:39:10;98775.03;;;23.63;25.96
7376;BME280;3728;42.266;24.944;2023-03-26T16:47:40;98777.22;;;22.43;28.33
7376;BME280;3728;42.266;24.944;2023-03-26T17:04:15;98789.25;;;20.76;30.16
7376;BME280;3728;42.266;24.944;2023-03-26T17:24:04;98822.34;;;19.94;32.45
7376;BME280;3728;42.266;24.944;2023-03-26T17:27:00;98820.44;;;19.91;32.47
7376;BME280;3728;42.266;24.944;2023-03-26T17:30:22;98837.91;;;19.92;32.19
7376;BME280;3728;42.266;24.944;2023-03-26T17:35:41;98841.72;;;19.88;32.18
7376;BME280;3728;42.266;24.944;2023-03-26T17:43:44;98850.19;;;19.25;32.70
7376;BME280;3728;42.266;24.944;2023-03-26T17:51:48;98862.28;;;19.15;32.50
7376;BME280;3728;42.266;24.944;2023-03-26T17:54:40;98860.41;;;19.12;33.17
7376;BME280;3728;42.266;24.944;2023-03-26T17:57:41;98865.72;;;19.16;33.00
7376;BME280;3728;42.266;24.944;2023-03-26T18:00:20;98870.44;;;18.82;33.41
7376;BME280;3728;42.266;24.944;2023-03-26T18:02:59;98871.47;;;18.67;34.45
7376;BME280;3728;42.266;24.944;2023-03-26T18:05:52;98873.16;;;18.41;34.66
7376;BME280;3728;42.266;24.944;2023-03-26T18:18:12;98897.75;;;16.34;43.00
7376;BME280;3728;42.266;24.944;2023-03-26T18:20:51;98892.38;;;16.08;43.16
7376;BME280;3728;42.266;24.944;2023-03-26T18:23:36;98892.09;;;16.13;43.33
7376;BME280;3728;42.266;24.944;2023-03-26T18:26:19;98890.72;;;16.00;43.51
7376;BME280;3728;42.266;24.944;2023-03-26T18:29:31;98886.28;;;16.04;42.67
7376;BME280;3728;42.266;24.944;2023-03-26T18:34:45;98891.44;;;15.97;42.07
7376;BME280;3728;42.266;24.944;2023-03-26T18:37:20;98884.91;;;16.13;41.52
7376;BME280;3728;42.266;24.944;2023-03-26T18:42:54;98886.69;;;16.28;40.66
7376;BME280;3728;42.266;24.944;2023-03-26T18:45:28;98887.16;;;16.11;41.47
7376;BME280;3728;42.266;24.944;2023-03-26T18:48:11;98896.13;;;16.07;41.53
7376;BME280;3728;42.266;24.944;2023-03-26T18:51:02;98899.97;;;15.90;42.02
7376;BME280;3728;42.266;24.944;2023-03-26T18:53:55;98894.69;;;15.71;42.91
7376;BME280;3728;42.266;24.944;2023-03-26T18:56:39;98897.84;;;15.57;43.15
7376;BME280;3728;42.266;24.944;2023-03-26T18:59:27;98887.00;;;15.62;43.45
7376;BME280;3728;42.266;24.944;2023-03-26T19:02:11;98878.53;;;15.53;42.58
7376;BME280;3728;42.266;24.944;2023-03-26T19:05:02;98887.09;;;15.31;42.63
7376;BME280;3728;42.266;24.944;2023-03-26T19:07:32;98889.00;;;15.50;42.08
7376;BME280;3728;42.266;24.944;2023-03-26T19:10:04;98899.72;;;15.57;41.49
7376;BME280;3728;42.266;24.944;2023-03-26T19:12:33;98894.16;;;15.62;41.72
7376;BME280;3728;42.266;24.944;2023-03-26T19:15:13;98900.69;;;15.68;41.23
7376;BME280;3728;42.266;24.944;2023-03-26T19:17:48;98892.84;;;15.52;41.56
7376;BME280;3728;42.266;24.944;2023-03-26T19:20:42;98891.22;;;15.48;41.97
7376;BME280;3728;42.266;24.944;2023-03-26T19:23:32;98897.72;;;15.35;42.32
7376;BME280;3728;42.266;24.944;2023-03-26T19:26:07;98889.25;;;15.26;42.85
7376;BME280;3728;42.266;24.944;2023-03-26T19:28:47;98885.06;;;15.25;43.03
7376;BME280;3728;42.266;24.944;2023-03-26T19:32:16;98896.50;;;15.13;42.61
7376;BME280;3728;42.266;24.944;2023-03-26T19:34:58;98885.47;;;15.07;42.49
7376;BME280;3728;42.266;24.944;2023-03-26T19:37:49;98887.47;;;14.95;42.44
7376;BME280;3728;42.266;24.944;2023-03-26T19:40:23;98884.06;;;14.94;42.58
7376;BME280;3728;42.266;24.944;2023-03-26T19:43:00;98879.88;;;14.93;42.41
7376;BME280;3728;42.266;24.944;2023-03-26T19:45:32;98883.53;;;14.89;42.53
7376;BME280;3728;42.266;24.944;2023-03-26T19:48:22;98877.06;;;14.67;42.94
7376;BME280;3728;42.266;24.944;2023-03-26T19:51:18;98873.72;;;14.70;43.44
7376;BME280;3728;42.266;24.944;2023-03-26T19:53:56;98882.66;;;14.66;43.49
7376;BME280;3728;42.266;24.944;2023-03-26T19:56:28;98876.09;;;14.44;43.74
7376;BME280;3728;42.266;24.944;2023-03-26T19:58:56;98880.78;;;14.35;43.73
7376;BME280;3728;42.266;24.944;2023-03-26T20:01:28;98874.41;;;14.52;44.11
7376;BME280;3728;42.266;24.944;2023-03-26T20:04:04;98866.50;;;14.36;44.06
7376;BME280;3728;42.266;24.944;2023-03-26T20:06:35;98875.94;;;14.37;44.59